createdAt,value
2023-04-26T00:00:34.039Z,5.40
2023-04-26T00:01:33.980Z,5.70
2023-04-26T00:02:34.064Z,5.80
2023-04-26T00:03:34.426Z,6.20
2023-04-26T00:04:34.247Z,5.90
2023-04-26T00:05:33.998Z,6.10
2023-04-26T00:06:33.954Z,5.70
2023-04-26T00:07:33.916Z,5.80
2023-04-26T00:08:34.010Z,6.10
2023-04-26T00:09:33.936Z,5.90
2023-04-26T00:10:33.886Z,6.00
2023-04-26T00:11:33.873Z,6.30
2023-04-26T00:12:33.864Z,6.00
2023-04-26T00:13:33.853Z,5.90
2023-04-26T00:14:33.853Z,6.20
2023-04-26T00:15:33.823Z,6.20
2023-04-26T00:16:33.856Z,6.20
2023-04-26T00:17:33.863Z,6.60
2023-04-26T00:18:33.837Z,6.30
2023-04-26T00:19:33.789Z,6.70
2023-04-26T00:20:33.776Z,6.20
2023-04-26T00:21:33.770Z,6.40
2023-04-26T00:22:33.763Z,6.40
2023-04-26T00:23:33.766Z,6.40
2023-04-26T00:24:33.742Z,6.00
2023-04-26T00:25:33.768Z,5.70
2023-04-26T00:26:33.721Z,6.80
2023-04-26T00:27:33.709Z,6.60
2023-04-26T00:28:33.682Z,6.00
2023-04-26T00:29:33.687Z,7.10
2023-04-26T00:30:33.680Z,7.20
2023-04-26T00:31:33.718Z,6.20
2023-04-26T00:32:33.749Z,6.60
2023-04-26T00:33:33.656Z,6.50
2023-04-26T00:34:33.638Z,6.80
2023-04-26T00:35:33.627Z,6.90
2023-04-26T00:36:33.600Z,6.50
2023-04-26T00:37:33.649Z,6.70
2023-04-26T00:38:33.592Z,6.60
2023-04-26T00:39:33.568Z,6.50
2023-04-26T00:40:33.557Z,6.30
2023-04-26T00:41:33.560Z,5.50
2023-04-26T00:42:33.537Z,6.50
2023-04-26T00:43:33.753Z,7.10
2023-04-26T00:44:33.554Z,6.80
2023-04-26T00:45:33.624Z,5.60
2023-04-26T00:46:33.491Z,6.40
2023-04-26T00:47:33.531Z,5.80
2023-04-26T00:48:33.480Z,5.90
2023-04-26T00:49:33.473Z,5.90
2023-04-26T00:50:33.446Z,6.40
2023-04-26T00:51:33.431Z,6.00
2023-04-26T00:52:33.426Z,6.40
2023-04-26T00:53:33.435Z,6.00
2023-04-26T00:54:33.397Z,5.70
2023-04-26T00:55:33.453Z,5.60
2023-04-26T00:56:33.384Z,5.90
2023-04-26T00:57:33.408Z,6.20
2023-04-26T00:58:33.402Z,6.00
2023-04-26T00:59:33.368Z,6.00
2023-04-26T01:00:33.348Z,5.80
2023-04-26T01:01:33.360Z,5.40
2023-04-26T01:02:33.504Z,5.80
2023-04-26T01:03:33.440Z,5.50
2023-04-26T01:04:33.415Z,5.10
2023-04-26T01:05:33.300Z,5.90
2023-04-26T01:06:33.304Z,5.70
2023-04-26T01:07:33.265Z,5.30
2023-04-26T01:08:33.316Z,5.40
2023-04-26T01:09:33.251Z,5.70
2023-04-26T01:10:33.239Z,5.30
2023-04-26T01:11:33.218Z,5.20
2023-04-26T01:12:33.263Z,5.20
2023-04-26T01:13:33.221Z,6.20
2023-04-26T01:14:33.191Z,6.10
2023-04-26T01:15:33.232Z,5.60
2023-04-26T01:16:33.206Z,6.00
2023-04-26T01:17:33.248Z,5.40
2023-04-26T01:18:33.223Z,5.70
2023-04-26T01:19:33.150Z,4.90
2023-04-26T01:20:33.114Z,5.30
2023-04-26T01:21:33.106Z,5.50
2023-04-26T01:22:33.094Z,5.70
2023-04-26T01:23:33.109Z,5.00
2023-04-26T01:24:33.075Z,5.20
2023-04-26T01:25:33.167Z,5.50
2023-04-26T01:26:33.064Z,5.00
2023-04-26T01:27:33.079Z,5.30
2023-04-26T01:28:33.102Z,5.00
2023-04-26T01:29:33.014Z,4.70
2023-04-26T01:30:33.004Z,5.00
2023-04-26T01:31:33.843Z,4.90
2023-04-26T01:32:33.019Z,5.20
2023-04-26T01:33:33.019Z,5.60
2023-04-26T01:34:32.954Z,5.30
2023-04-26T01:35:32.955Z,5.50
2023-04-26T01:36:32.938Z,4.90
2023-04-26T01:37:32.984Z,5.10
2023-04-26T01:38:32.927Z,5.00
2023-04-26T01:39:32.922Z,5.40
2023-04-26T01:40:32.904Z,5.00
2023-04-26T01:41:32.920Z,4.90
2023-04-26T01:42:32.881Z,4.50
2023-04-26T01:43:32.858Z,5.00
2023-04-26T01:44:32.886Z,5.20
2023-04-26T01:45:32.838Z,4.70
2023-04-26T01:46:32.870Z,4.90
2023-04-26T01:47:32.854Z,5.10
2023-04-26T01:48:32.824Z,4.90
2023-04-26T01:49:32.817Z,4.90
2023-04-26T01:50:32.796Z,5.20
2023-04-26T01:51:32.827Z,4.20
2023-04-26T01:52:32.768Z,4.40
2023-04-26T01:53:32.770Z,5.20
2023-04-26T01:54:32.740Z,4.70
2023-04-26T01:55:32.729Z,4.50
2023-04-26T01:56:32.712Z,4.30
2023-04-26T01:57:32.723Z,5.20
2023-04-26T01:58:32.700Z,4.70
2023-04-26T01:59:32.760Z,5.50
2023-04-26T02:00:32.670Z,4.70
2023-04-26T02:01:32.763Z,4.70
2023-04-26T02:02:32.701Z,5.30
2023-04-26T02:03:32.733Z,4.30
2023-04-26T02:04:32.655Z,4.70
2023-04-26T02:05:32.638Z,5.00
2023-04-26T02:06:32.633Z,4.30
2023-04-26T02:07:32.588Z,4.70
2023-04-26T02:08:32.632Z,4.80
2023-04-26T02:09:32.582Z,4.70
2023-04-26T02:10:32.557Z,5.10
2023-04-26T02:11:32.550Z,4.80
2023-04-26T02:12:32.532Z,4.80
2023-04-26T02:13:32.530Z,4.90
2023-04-26T02:14:32.522Z,5.40
2023-04-26T02:15:32.507Z,5.30
2023-04-26T02:16:32.594Z,5.40
2023-04-26T02:17:32.568Z,5.00
2023-04-26T02:18:33.204Z,5.10
2023-04-26T02:19:32.478Z,4.70
2023-04-26T02:20:32.452Z,4.80
2023-04-26T02:21:32.476Z,4.30
2023-04-26T02:22:32.430Z,4.70
2023-04-26T02:23:32.419Z,4.60
2023-04-26T02:24:33.453Z,4.10
2023-04-26T02:25:32.425Z,5.20
2023-04-26T02:26:32.381Z,4.60
2023-04-26T02:27:32.392Z,4.70
2023-04-26T02:28:32.394Z,4.20
2023-04-26T02:29:43.687Z,4.70
2023-04-26T02:30:32.343Z,5.00
2023-04-26T02:31:32.367Z,4.30
2023-04-26T02:32:32.393Z,4.50
2023-04-26T02:33:32.325Z,4.50
2023-04-26T02:34:32.347Z,4.40
2023-04-26T02:35:32.289Z,4.50
2023-04-26T02:36:32.327Z,4.40
2023-04-26T02:37:32.278Z,4.30
2023-04-26T02:38:32.249Z,4.50
2023-04-26T02:39:32.253Z,4.40
2023-04-26T02:40:32.265Z,4.30
2023-04-26T02:41:32.489Z,4.10
2023-04-26T02:42:32.212Z,4.10
2023-04-26T02:43:32.210Z,4.20
2023-04-26T02:44:32.197Z,4.10
2023-04-26T02:45:32.179Z,4.20
2023-04-26T02:46:32.230Z,4.50
2023-04-26T02:47:32.205Z,4.40
2023-04-26T02:48:32.162Z,4.10
2023-04-26T02:49:32.162Z,4.80
2023-04-26T02:50:32.125Z,3.80
2023-04-26T02:51:32.116Z,4.50
2023-04-26T02:52:32.108Z,4.40
2023-04-26T02:53:32.090Z,4.30
2023-04-26T02:54:32.245Z,4.00
2023-04-26T02:55:32.079Z,3.60
2023-04-26T02:56:32.063Z,3.80
2023-04-26T02:57:32.058Z,4.30
2023-04-26T02:58:32.036Z,3.60
2023-04-26T02:59:32.076Z,3.90
2023-04-26T03:00:32.009Z,3.90
2023-04-26T03:01:32.084Z,3.80
2023-04-26T03:02:32.141Z,3.80
2023-04-26T03:03:32.100Z,4.30
2023-04-26T03:04:31.968Z,4.40
2023-04-26T03:05:31.985Z,3.80
2023-04-26T03:06:31.935Z,3.80
2023-04-26T03:07:31.968Z,3.90
2023-04-26T03:08:31.924Z,4.00
2023-04-26T03:09:31.942Z,4.10
2023-04-26T03:10:31.899Z,3.60
2023-04-26T03:11:31.889Z,4.30
2023-04-26T03:12:31.883Z,3.90
2023-04-26T03:13:31.886Z,3.80
2023-04-26T03:14:31.889Z,4.00
2023-04-26T03:15:31.844Z,3.60
2023-04-26T03:16:31.918Z,3.70
2023-04-26T03:17:31.867Z,3.80
2023-04-26T03:18:31.815Z,3.70
2023-04-26T03:19:31.904Z,3.80
2023-04-26T03:20:31.798Z,4.30
2023-04-26T03:21:31.790Z,4.30
2023-04-26T03:22:31.792Z,3.80
2023-04-26T03:23:31.758Z,4.30
2023-04-26T03:24:31.771Z,3.90
2023-04-26T03:25:31.741Z,4.10
2023-04-26T03:26:31.722Z,3.50
2023-04-26T03:27:31.751Z,4.60
2023-04-26T03:28:31.717Z,3.80
2023-04-26T03:29:32.214Z,4.20
2023-04-26T03:30:31.686Z,4.40
2023-04-26T03:31:31.708Z,4.10
2023-04-26T03:32:31.681Z,4.40
2023-04-26T03:33:31.658Z,3.80
2023-04-26T03:34:31.663Z,3.90
2023-04-26T03:35:31.630Z,4.30
2023-04-26T03:36:31.683Z,4.50
2023-04-26T03:37:34.486Z,4.40
2023-04-26T03:38:31.616Z,4.20
2023-04-26T03:39:31.681Z,4.40
2023-04-26T03:40:31.572Z,4.10
2023-04-26T03:41:31.566Z,4.80
2023-04-26T03:42:31.550Z,4.70
2023-04-26T03:43:31.573Z,4.50
2023-04-26T03:44:31.545Z,4.00
2023-04-26T03:45:31.559Z,3.60
2023-04-26T03:46:31.824Z,4.30
2023-04-26T03:47:31.553Z,3.70
2023-04-26T03:48:31.480Z,3.80
2023-04-26T03:49:31.486Z,4.50
2023-04-26T03:50:31.477Z,4.20
2023-04-26T03:51:39.725Z,4.60
2023-04-26T03:52:31.472Z,4.60
2023-04-26T03:53:31.429Z,4.20
2023-04-26T03:54:31.422Z,4.00
2023-04-26T03:55:31.458Z,4.20
2023-04-26T03:56:31.430Z,4.60
2023-04-26T03:57:31.399Z,4.10
2023-04-26T03:58:31.373Z,3.90
2023-04-26T03:59:31.383Z,4.20
2023-04-26T04:00:31.371Z,4.20
2023-04-26T04:01:31.337Z,4.20
2023-04-26T04:02:31.436Z,4.30
2023-04-26T04:03:31.464Z,4.80
2023-04-26T04:04:31.516Z,4.70
2023-04-26T04:05:31.350Z,4.40
2023-04-26T04:06:31.304Z,4.30
2023-04-26T04:07:31.287Z,5.00
2023-04-26T04:08:31.259Z,4.60
2023-04-26T04:09:31.256Z,4.90
2023-04-26T04:10:31.348Z,5.20
2023-04-26T04:11:31.258Z,4.30
2023-04-26T04:12:31.212Z,4.30
2023-04-26T04:13:31.216Z,4.40
2023-04-26T04:14:31.207Z,4.20
2023-04-26T04:15:31.215Z,5.30
2023-04-26T04:16:31.411Z,4.50
2023-04-26T04:17:31.195Z,4.70
2023-04-26T04:18:31.155Z,4.70
2023-04-26T04:19:31.141Z,4.70
2023-04-26T04:20:31.189Z,4.60
2023-04-26T04:21:31.121Z,4.40
2023-04-26T04:22:31.113Z,5.50
2023-04-26T04:23:31.136Z,4.50
2023-04-26T04:24:32.770Z,5.00
2023-04-26T04:25:31.132Z,4.80
2023-04-26T04:26:31.071Z,4.10
2023-04-26T04:27:31.154Z,4.30
2023-04-26T04:28:31.104Z,4.40
2023-04-26T04:29:31.030Z,4.90
2023-04-26T04:30:31.091Z,5.20
2023-04-26T04:31:31.057Z,4.30
2023-04-26T04:32:31.035Z,4.60
2023-04-26T04:33:31.007Z,4.10
2023-04-26T04:34:31.047Z,4.50
2023-04-26T04:35:30.997Z,4.30
2023-04-26T04:36:30.973Z,4.30
2023-04-26T04:37:30.957Z,4.90
2023-04-26T04:38:30.937Z,5.20
2023-04-26T04:39:30.953Z,4.50
2023-04-26T04:40:30.912Z,5.10
2023-04-26T04:41:30.900Z,4.40
2023-04-26T04:42:30.911Z,4.60
2023-04-26T04:43:30.874Z,4.80
2023-04-26T04:44:30.869Z,4.50
2023-04-26T04:45:30.862Z,4.60
2023-04-26T04:46:30.912Z,4.90
2023-04-26T04:47:30.862Z,4.40
2023-04-26T04:48:30.837Z,4.30
2023-04-26T04:49:30.830Z,4.80
2023-04-26T04:50:30.814Z,4.40
2023-04-26T04:51:30.791Z,4.20
2023-04-26T04:52:30.796Z,4.60
2023-04-26T04:53:30.762Z,4.80
2023-04-26T04:54:30.766Z,5.00
2023-04-26T04:55:30.755Z,4.50
2023-04-26T04:56:30.730Z,4.50
2023-04-26T04:57:30.755Z,4.10
2023-04-26T04:58:30.715Z,5.20
2023-04-26T04:59:30.734Z,4.80
2023-04-26T05:00:30.705Z,5.30
2023-04-26T05:01:30.695Z,4.30
2023-04-26T05:02:30.746Z,4.80
2023-04-26T05:03:30.877Z,4.80
2023-04-26T05:04:30.823Z,5.30
2023-04-26T05:05:30.697Z,4.40
2023-04-26T05:06:30.649Z,4.70
2023-04-26T05:07:30.609Z,5.30
2023-04-26T05:08:30.627Z,4.90
2023-04-26T05:09:30.611Z,4.60
2023-04-26T05:10:30.592Z,4.80
2023-04-26T05:11:30.574Z,4.70
2023-04-26T05:12:30.572Z,4.20
2023-04-26T05:13:30.571Z,4.90
2023-04-26T05:14:30.540Z,4.50
2023-04-26T05:15:30.572Z,5.00
2023-04-26T05:16:30.575Z,4.90
2023-04-26T05:17:30.541Z,5.20
2023-04-26T05:18:30.493Z,4.80
2023-04-26T05:19:30.481Z,4.90
2023-04-26T05:20:30.506Z,5.00
2023-04-26T05:21:30.455Z,5.00
2023-04-26T05:22:30.457Z,4.80
2023-04-26T05:23:31.346Z,4.60
2023-04-26T05:25:43.069Z,6.30
2023-04-26T05:26:43.067Z,4.90
2023-04-26T05:27:43.059Z,5.50
2023-04-26T05:28:43.067Z,5.30
2023-04-26T05:29:43.056Z,5.40
2023-04-26T05:30:43.030Z,5.20
2023-04-26T05:31:43.042Z,5.30
2023-04-26T05:32:43.111Z,5.70
2023-04-26T05:33:43.008Z,6.00
2023-04-26T05:34:43.000Z,5.40
2023-04-26T05:35:42.981Z,6.10
2023-04-26T05:36:42.955Z,5.40
2023-04-26T05:37:42.947Z,5.40
2023-04-26T05:38:42.947Z,5.30
2023-04-26T05:39:42.926Z,5.00
2023-04-26T05:40:42.938Z,5.80
2023-04-26T05:41:43.452Z,5.30
2023-04-26T05:42:42.892Z,5.40
2023-04-26T05:43:42.890Z,5.50
2023-04-26T05:44:42.861Z,6.00
2023-04-26T05:45:42.939Z,5.90
2023-04-26T05:46:42.849Z,5.60
2023-04-26T05:47:42.916Z,5.60
2023-04-26T05:48:42.848Z,5.90
2023-04-26T05:49:42.825Z,5.30
2023-04-26T05:50:42.884Z,5.60
2023-04-26T05:51:51.128Z,5.80
2023-04-26T05:52:43.092Z,5.70
2023-04-26T05:53:42.770Z,5.50
2023-04-26T05:54:43.055Z,5.20
2023-04-26T05:55:42.761Z,5.90
2023-04-26T05:56:42.775Z,5.50
2023-04-26T05:57:43.300Z,6.10
2023-04-26T05:58:42.714Z,5.40
2023-04-26T05:59:43.090Z,5.80
2023-04-26T06:00:47.819Z,5.40
2023-04-26T06:01:42.690Z,5.80
2023-04-26T06:02:42.889Z,5.90
2023-04-26T06:04:11.989Z,5.50
2023-04-26T06:04:42.766Z,5.70
2023-04-26T06:05:42.683Z,6.10
2023-04-26T06:06:42.639Z,5.60
2023-04-26T06:07:42.677Z,5.60
2023-04-26T06:08:42.874Z,5.30
2023-04-26T06:09:42.632Z,5.40
2023-04-26T06:10:50.615Z,5.20
2023-04-26T06:11:42.565Z,6.10
2023-04-26T06:12:42.684Z,5.40
2023-04-26T06:13:42.584Z,5.40
2023-04-26T06:14:42.529Z,5.60
2023-04-26T06:15:42.710Z,6.30
2023-04-26T06:16:43.819Z,5.30
2023-04-26T06:17:42.557Z,5.60
2023-04-26T06:18:42.498Z,6.00
2023-04-26T06:19:42.483Z,5.70
2023-04-26T06:20:42.492Z,5.20
2023-04-26T06:21:42.480Z,5.20
2023-04-26T06:22:42.481Z,5.40
2023-04-26T06:23:42.438Z,5.00
2023-04-26T06:24:42.414Z,6.30
2023-04-26T06:25:45.028Z,5.40
2023-04-26T06:26:42.409Z,5.80
2023-04-26T06:27:50.672Z,5.70
2023-04-26T06:28:42.509Z,5.50
2023-04-26T06:29:42.378Z,4.80
2023-04-26T06:30:42.407Z,5.80
2023-04-26T06:31:42.370Z,5.40
2023-04-26T06:32:42.425Z,5.10
2023-04-26T06:33:42.333Z,5.40
2023-04-26T06:34:42.310Z,5.50
2023-04-26T06:35:42.311Z,5.40
2023-04-26T06:36:42.335Z,4.80
2023-04-26T06:37:42.367Z,4.80
2023-04-26T06:38:42.321Z,6.00
2023-04-26T06:39:42.306Z,4.90
2023-04-26T06:40:42.302Z,5.30
2023-04-26T06:41:42.331Z,5.10
2023-04-26T06:42:42.340Z,4.80
2023-04-26T06:43:42.250Z,5.10
2023-04-26T06:44:42.567Z,4.70
2023-04-26T06:45:43.598Z,5.20
2023-04-26T06:46:42.265Z,5.50
2023-04-26T06:47:42.332Z,4.80
2023-04-26T06:48:42.879Z,5.00
2023-04-26T06:49:44.349Z,5.50
2023-04-26T06:50:42.254Z,5.30
2023-04-26T06:51:42.234Z,4.90
2023-04-26T06:52:42.160Z,4.80
2023-04-26T06:53:42.250Z,5.60
2023-04-26T06:54:53.718Z,5.80
2023-04-26T06:55:42.127Z,4.70
2023-04-26T06:56:42.159Z,5.30
2023-04-26T06:57:42.075Z,4.80
2023-04-26T06:58:42.047Z,5.40
2023-04-26T06:59:42.071Z,5.40
2023-04-26T07:00:42.045Z,5.30
2023-04-26T07:01:42.250Z,4.80
2023-04-26T07:02:42.135Z,5.30
2023-04-26T07:03:42.149Z,5.20
2023-04-26T07:04:42.153Z,4.60
2023-04-26T07:05:42.086Z,5.40
2023-04-26T07:06:42.370Z,4.70
2023-04-26T07:07:42.010Z,4.90
2023-04-26T07:08:41.975Z,5.10
2023-04-26T07:09:41.976Z,5.60
2023-04-26T07:10:41.932Z,5.70
2023-04-26T07:11:41.935Z,5.00
2023-04-26T07:12:42.019Z,5.10
2023-04-26T07:13:42.653Z,5.50
2023-04-26T07:14:41.882Z,5.20
2023-04-26T07:15:41.952Z,5.30
2023-04-26T07:16:41.962Z,6.00
2023-04-26T07:17:41.866Z,5.60
2023-04-26T07:18:41.926Z,5.30
2023-04-26T07:19:41.825Z,4.70
2023-04-26T07:20:41.805Z,5.50
2023-04-26T07:21:41.859Z,5.60
2023-04-26T07:22:41.810Z,5.50
2023-04-26T07:23:41.803Z,4.80
2023-04-26T07:24:41.825Z,5.70
2023-04-26T07:25:42.743Z,5.90
2023-04-26T07:26:41.748Z,4.90
2023-04-26T07:27:41.733Z,6.00
2023-04-26T07:28:41.727Z,5.50
2023-04-26T07:29:41.735Z,5.40
2023-04-26T07:30:41.807Z,5.30
2023-04-26T07:31:41.710Z,5.90
2023-04-26T07:32:42.699Z,5.80
2023-04-26T07:33:41.742Z,5.80
2023-04-26T07:34:41.724Z,5.90
2023-04-26T07:35:41.643Z,5.70
2023-04-26T07:36:41.647Z,5.90
2023-04-26T07:37:41.684Z,5.40
2023-04-26T07:38:41.603Z,5.40
2023-04-26T07:39:41.642Z,5.20
2023-04-26T07:40:41.585Z,5.00
2023-04-26T07:41:43.704Z,5.30
2023-04-26T07:42:41.572Z,5.80
2023-04-26T07:43:41.562Z,5.00
2023-04-26T07:44:41.555Z,5.20
2023-04-26T07:45:41.563Z,5.10
2023-04-26T07:46:41.531Z,5.50
2023-04-26T07:47:41.599Z,5.10
2023-04-26T07:48:41.587Z,5.20
2023-04-26T07:49:41.522Z,4.70
2023-04-26T07:50:41.505Z,4.70
2023-04-26T07:51:41.487Z,5.00
2023-04-26T07:52:41.512Z,5.50
2023-04-26T07:53:41.464Z,4.80
2023-04-26T07:54:41.427Z,5.60
2023-04-26T07:55:42.452Z,5.30
2023-04-26T07:56:41.576Z,5.50
2023-04-26T07:57:41.612Z,4.70
2023-04-26T07:58:41.867Z,5.40
2023-04-26T07:59:43.427Z,5.20
2023-04-26T08:00:51.835Z,5.60
2023-04-26T08:01:41.721Z,5.70
2023-04-26T08:02:45.130Z,5.30
2023-04-26T08:03:41.691Z,4.90
2023-04-26T08:04:41.466Z,5.10
2023-04-26T08:05:41.569Z,5.90
2023-04-26T08:06:41.441Z,5.10
2023-04-26T08:07:41.386Z,5.00
2023-04-26T08:08:41.319Z,5.50
2023-04-26T08:09:41.341Z,5.20
2023-04-26T08:10:41.256Z,5.10
2023-04-26T08:11:41.285Z,5.20
2023-04-26T08:12:43.135Z,5.60
2023-04-26T08:13:41.294Z,5.10
2023-04-26T08:14:41.219Z,5.40
2023-04-26T08:15:41.320Z,5.30
2023-04-26T08:16:41.271Z,5.00
2023-04-26T08:17:41.237Z,4.40
2023-04-26T08:18:41.170Z,5.50
2023-04-26T08:19:42.903Z,4.90
2023-04-26T08:20:41.336Z,5.80
2023-04-26T08:21:41.478Z,5.20
2023-04-26T08:22:41.246Z,4.90
2023-04-26T08:23:41.842Z,5.60
2023-04-26T08:26:16.338Z,5.00
2023-04-26T08:27:16.782Z,5.30
2023-04-26T08:28:16.851Z,4.50
2023-04-26T08:29:16.747Z,4.60
2023-04-26T08:30:16.794Z,5.00
2023-04-26T08:31:17.797Z,5.40
2023-04-26T08:32:16.720Z,4.60
2023-04-26T08:33:16.826Z,5.10
2023-04-26T08:34:28.577Z,4.90
2023-04-26T08:36:46.280Z,4.60
2023-04-26T08:37:47.029Z,4.30
2023-04-26T08:38:55.284Z,5.30
2023-04-26T08:39:46.718Z,5.10
2023-04-26T08:40:46.696Z,4.60
2023-04-26T08:41:46.679Z,4.30
2023-04-26T08:42:46.683Z,4.40
2023-04-26T08:43:46.633Z,4.40
2023-04-26T08:44:46.906Z,4.60
2023-04-26T08:45:46.670Z,4.30
2023-04-26T08:46:46.718Z,4.20
2023-04-26T08:47:48.925Z,4.10
2023-04-26T08:48:47.479Z,4.60
2023-04-26T08:49:54.805Z,4.50
2023-04-26T08:50:46.761Z,4.30
2023-04-26T08:51:46.544Z,4.40
2023-04-26T08:52:47.098Z,4.30
2023-04-26T08:53:48.478Z,4.80
2023-04-26T08:54:46.868Z,4.10
2023-04-26T08:55:46.499Z,4.60
2023-04-26T08:56:46.478Z,4.60
2023-04-26T08:57:46.525Z,4.40
2023-04-26T08:58:46.465Z,4.30
2023-04-26T08:59:46.459Z,3.80
2023-04-26T09:00:46.522Z,4.10
2023-04-26T09:01:46.533Z,4.10
2023-04-26T09:02:46.567Z,3.80
2023-04-26T09:03:46.654Z,4.30
2023-04-26T09:04:46.498Z,4.30
2023-04-26T09:05:46.388Z,4.20
2023-04-26T09:06:46.420Z,3.90
2023-04-26T09:07:46.409Z,4.40
2023-04-26T09:08:46.360Z,4.30
2023-04-26T09:09:46.595Z,4.00
2023-04-26T09:10:46.810Z,2.80
2023-04-26T09:11:56.485Z,3.10
2023-04-26T09:12:46.327Z,3.00
2023-04-26T09:13:46.613Z,3.40
2023-04-26T09:14:46.298Z,3.10
2023-04-26T09:15:46.316Z,2.90
2023-04-26T09:16:46.268Z,2.70
2023-04-26T09:17:46.369Z,3.60
2023-04-26T09:18:46.364Z,3.30
2023-04-26T09:19:46.294Z,2.80
2023-04-26T09:20:46.343Z,3.40
2023-04-26T09:21:46.268Z,3.00
2023-04-26T09:22:46.213Z,3.40
2023-04-26T09:23:46.233Z,3.40
2023-04-26T09:24:46.284Z,3.30
2023-04-26T09:25:46.205Z,3.90
2023-04-26T09:26:46.191Z,3.30
2023-04-26T09:27:46.895Z,3.20
2023-04-26T09:28:46.216Z,3.20
2023-04-26T09:29:46.191Z,3.20
2023-04-26T09:30:46.177Z,3.50
2023-04-26T09:31:48.653Z,3.70
2023-04-26T09:32:46.154Z,3.40
2023-04-26T09:33:46.879Z,3.40
2023-04-26T09:36:05.136Z,3.30
2023-04-26T09:37:05.525Z,3.40
2023-04-26T09:38:10.992Z,3.80
2023-04-26T09:39:05.504Z,3.30
2023-04-26T09:40:05.505Z,3.10
2023-04-26T09:41:05.480Z,3.30
2023-04-26T09:42:05.540Z,3.00
2023-04-26T09:43:05.494Z,3.10
2023-04-26T09:44:05.493Z,3.30
2023-04-26T09:45:06.204Z,3.10
2023-04-26T09:46:05.483Z,3.60
2023-04-26T09:47:05.645Z,3.40
2023-04-26T09:48:05.454Z,3.20
2023-04-26T09:49:05.419Z,3.50
2023-04-26T09:50:05.378Z,3.20
2023-04-26T09:51:06.190Z,3.10
2023-04-26T09:52:05.361Z,3.10
2023-04-26T09:53:05.523Z,3.00
2023-04-26T09:54:05.536Z,3.10
2023-04-26T09:55:05.390Z,2.90
2023-04-26T09:56:05.368Z,3.30
2023-04-26T09:57:05.389Z,3.30
2023-04-26T09:58:05.372Z,3.50
2023-04-26T09:59:05.413Z,3.20
2023-04-26T10:00:05.391Z,2.90
2023-04-26T10:01:05.306Z,2.50
2023-04-26T10:02:07.981Z,3.40
2023-04-26T10:03:17.759Z,2.60
2023-04-26T10:04:05.297Z,2.80
2023-04-26T10:05:05.253Z,2.90
2023-04-26T10:06:06.347Z,2.80
2023-04-26T10:07:05.210Z,3.20
2023-04-26T10:08:06.863Z,3.30
2023-04-26T10:09:14.775Z,3.40
2023-04-26T10:10:05.200Z,3.30
2023-04-26T10:11:05.326Z,2.50
2023-04-26T10:12:05.162Z,2.90
2023-04-26T10:13:05.171Z,3.00
2023-04-26T10:14:05.125Z,3.10
2023-04-26T10:15:05.462Z,3.20
2023-04-26T10:18:48.894Z,3.00
2023-04-26T10:19:48.917Z,3.00
2023-04-26T10:20:48.906Z,3.40
2023-04-26T10:21:48.874Z,3.80
2023-04-26T10:22:48.872Z,3.00
2023-04-26T10:23:48.893Z,3.20
2023-04-26T10:24:48.870Z,2.80
2023-04-26T10:25:48.848Z,2.30
2023-04-26T10:26:48.833Z,2.30
2023-04-26T10:27:48.809Z,2.20
2023-04-26T10:28:49.795Z,2.50
2023-04-26T10:29:48.838Z,2.90
2023-04-26T10:30:48.881Z,2.70
2023-04-26T10:31:48.895Z,2.60
2023-04-26T10:32:48.817Z,2.30
2023-04-26T10:33:48.782Z,2.30
2023-04-26T10:34:48.749Z,2.50
2023-04-26T10:35:48.807Z,3.10
2023-04-26T10:36:48.781Z,2.50
2023-04-26T10:37:48.734Z,2.50
2023-04-26T10:38:48.743Z,2.40
2023-04-26T10:39:48.737Z,2.70
2023-04-26T10:40:48.679Z,2.50
2023-04-26T10:41:48.709Z,2.60
2023-04-26T10:42:48.682Z,3.00
2023-04-26T10:43:48.683Z,3.00
2023-04-26T10:44:48.771Z,2.70
2023-04-26T10:45:48.658Z,2.70
2023-04-26T10:46:48.620Z,2.70
2023-04-26T10:47:48.830Z,2.90
2023-04-26T10:48:48.644Z,2.80
2023-04-26T10:49:48.598Z,2.80
2023-04-26T10:50:48.564Z,2.80
2023-04-26T10:51:48.568Z,2.60
2023-04-26T10:52:48.562Z,3.00
2023-04-26T10:53:48.583Z,2.80
2023-04-26T10:54:48.530Z,3.00
2023-04-26T10:55:48.513Z,3.20
2023-04-26T10:56:48.512Z,2.60
2023-04-26T10:57:48.576Z,2.60
2023-04-26T10:58:48.610Z,2.70
2023-04-26T10:59:54.541Z,3.00
2023-04-26T11:00:48.472Z,2.70
2023-04-26T11:01:48.503Z,2.70
2023-04-26T11:02:51.063Z,2.00
2023-04-26T11:03:48.791Z,2.00
2023-04-26T11:04:48.454Z,1.90
2023-04-26T11:05:48.413Z,2.00
2023-04-26T11:06:48.392Z,2.00
2023-04-26T11:07:49.300Z,2.10
2023-04-26T11:08:48.373Z,2.60
2023-04-26T11:09:48.390Z,2.30
2023-04-26T11:10:48.361Z,2.40
2023-04-26T11:11:49.051Z,1.90
2023-04-26T11:12:48.331Z,2.30
2023-04-26T11:13:48.366Z,2.00
2023-04-26T11:19:37.601Z,2.10
2023-04-26T11:22:22.875Z,2.50
2023-04-26T11:23:22.423Z,2.40
2023-04-26T11:24:25.252Z,2.50
2023-04-26T11:25:22.652Z,2.10
